Capitol Logistics 449


KSMF
Sacramento International Airport
Sacramento, California, US
KELP
El Paso International Airport
El Paso, Texas, US

Route Details

Aircraft Information
Primary: Boeing 757-200SF
Backup: Boeing 737-800BCF
Route Data
Distance: 852nm
Sched. Duration: 2h 10m
Avg. Duration: 2h 30m (+20m)
Times Flown: 3
Recm'd Route: RVRCT2 RALEY JSICA Q130 ROCCY KD36Q CABNO SLNNK WAZKO1
Planned Altitude: 35,000ft
Origin Wx: KSMF 190153Z 34018G29KT 10SM FEW250 18/M03 A2991 RMK AO2 PK WND 35029/0151 SLP127 T01831033
Dest. Wx: KELP 190151Z 12006KT 10SM FEW120 SCT150 16/M12 A2986 RMK AO2 SLP085 T01561117 $
Notes:

Financial History
Total Freight: 105,808lbs
Average Load: 35,269lbs/flt
Fuel Used: 47,426lbs
Avg. Fuel Used: 15,809lbs/flt
Fuel Expense: $51,694
Avg. Fuel Expense: $17,231
Avg. Fuel Cost: $1.09/lbs
Total Gross Income: $136,984
Pilot Pay: $537
Total Expenses: $14,950
Total Revenue: $68,535
Average Revenue: $45,661.49